INFORMAÇÕES METEOROLÓGICAS
METAR FOR KCXP
ADDS - METARS form results

(0806 UTC 20 November 2018)
Data provider http://aviationweather.gov/metar/data/
 
METAR text: KCXP 200755Z AUTO 00000KT 10SM CLR M04/M11 A3019 RMK AO2
Conditions at: KCXP (CARSON CITY , NV, US) observed 0755 UTC 20 November 2018
Temperature: -4.0°C (25°F)
Dewpoint: -11.0°C (12°F) [RH = 58%]
Pressure (altimeter): 30.19 inches Hg (1022.4 mb)
Winds: calm
Visibility: 10 or more miles (16+ km)
Ceiling: at least 12,000 feet AGL
Clouds: sky clear below 12,000 feet AGL
Weather: automated observation with no human augmentation;
there may or may not be significant weather present at this time

METAR text: KCXP 200735Z AUTO 00000KT 10SM CLR M05/M11 A3019 RMK AO2
Conditions at: KCXP (CARSON CITY , NV, US) observed 0735 UTC 20 November 2018
Temperature: -5.0°C (23°F)
Dewpoint: -11.0°C (12°F) [RH = 63%]
Pressure (altimeter): 30.19 inches Hg (1022.4 mb)
Winds: calm
Visibility: 10 or more miles (16+ km)
Ceiling: at least 12,000 feet AGL
Clouds: sky clear below 12,000 feet AGL
Weather: automated observation with no human augmentation;
there may or may not be significant weather present at this time

METAR text: KCXP 200715Z AUTO 00000KT 10SM CLR M04/M12 A3020 RMK AO2
Conditions at: KCXP (CARSON CITY , NV, US) observed 0715 UTC 20 November 2018
Temperature: -4.0°C (25°F)
Dewpoint: -12.0°C (10°F) [RH = 54%]
Pressure (altimeter): 30.20 inches Hg (1022.8 mb)
Winds: calm
Visibility: 10 or more miles (16+ km)
Ceiling: at least 12,000 feet AGL
Clouds: sky clear below 12,000 feet AGL
Weather: automated observation with no human augmentation;
there may or may not be significant weather present at this time

Forecast for: KCXP (CARSON CITY , NV, US)
Text: KCXP 200520Z 2006/2106 VRB03KT P6SM OVC250
Forecast period: 0600 to 2100 UTC 20 November 2018
Forecast type: FROM: standard forecast or significant change
Winds: variable direction winds at 3 MPH (3 knots; 1.5 m/s)
Visibility: 6 or more miles 10+ km)
Ceiling: 25000 feet AGL
Clouds: overcast cloud deck at 25000 feet AGL
Weather: no significant weather forecast for this period
Text: FM202100 09008G15KT P6SM FEW180
Forecast period: 2100 UTC 20 November 2018 to 0100 UTC 21 November 2018
Forecast type: FROM: standard forecast or significant change
Winds: from the E (90 degrees) at 9 MPH (8 knots; 4.1 m/s)
gusting to 17 MPH (15 knots; 7.7 m/s)
Visibility: 6 or more miles 10+ km)
Ceiling: at least 12,000 feet AGL
Clouds: few clouds at 18000 feet AGL
Weather: no significant weather forecast for this period
Text: FM210100 VRB04KT P6SM FEW180
Forecast period: 0100 to 0600 UTC 21 November 2018
Forecast type: FROM: standard forecast or significant change
Winds: variable direction winds at 5 MPH (4 knots; 2.1 m/s)
Visibility: 6 or more miles 10+ km)
Ceiling: at least 12,000 feet AGL
Clouds: few clouds at 18000 feet AGL
Weather: no significant weather forecast for this period

 MAPA DO AEROPORTO

 INFORMAÇÕES DA PISTA
Pista 09 Tamanho da pista 5906 ft Largura da pista 75 ft
Elevação da pista 4697 ft Ranhura da pista 0 ft Proa da pista 107
Pista 27 Tamanho da pista 5906 ft Largura da pista 75 ft
Elevação da pista 4686 ft Ranhura da pista 0 ft Proa da pista 287

 FREQUÊNCIAS DO AEROPORTO
Tipo AWOS Nome AWOS 3 Frequência 119.925 MHZ
Tipo UNIC Nome CTAF/UNICO Frequência 123 MHZ

 AUXÍLIOS DE NAVEGAÇÃO PRÓXIMOS AO AEROPORTO





Powered by Virtual Airlines Manager [v2.6.2]